createdAt,value
2024-03-02T00:00:25.978Z,7.11
2024-03-02T00:02:53.610Z,7.22
2024-03-02T00:05:21.439Z,7.36
2024-03-02T00:07:54.647Z,7.31
2024-03-02T00:10:26.403Z,7.17
2024-03-02T00:12:54.050Z,7.09
2024-03-02T00:15:28.812Z,7.13
2024-03-02T00:17:56.836Z,7.11
2024-03-02T00:20:24.767Z,7.14
2024-03-02T00:22:52.750Z,7.24
2024-03-02T00:25:20.306Z,7.22
2024-03-02T00:27:51.058Z,7.23
2024-03-02T00:30:34.806Z,7.17
2024-03-02T00:33:02.409Z,6.92
2024-03-02T00:35:29.972Z,6.52
2024-03-02T00:37:57.483Z,6.26
2024-03-02T00:40:25.057Z,6.20
2024-03-02T00:42:57.127Z,6.27
2024-03-02T00:45:25.903Z,6.22
2024-03-02T00:47:53.743Z,6.23
2024-03-02T00:50:27.047Z,6.31
2024-03-02T00:52:58.461Z,6.42
2024-03-02T00:55:26.041Z,6.48
2024-03-02T00:57:53.807Z,6.70
2024-03-02T01:00:23.269Z,6.90
2024-03-02T01:02:51.805Z,6.81
2024-03-02T01:05:19.649Z,7.01
2024-03-02T01:07:47.206Z,7.08
2024-03-02T01:10:15.060Z,7.22
2024-03-02T01:12:42.752Z,7.19
2024-03-02T01:15:10.995Z,6.99
2024-03-02T01:17:40.053Z,6.73
2024-03-02T01:20:10.603Z,6.76
2024-03-02T01:22:38.627Z,6.87
2024-03-02T01:25:07.055Z,6.61
2024-03-02T01:27:35.090Z,6.85
2024-03-02T01:30:02.777Z,6.99
2024-03-02T01:32:30.787Z,7.01
2024-03-02T01:34:59.735Z,7.04
2024-03-02T01:37:27.317Z,7.08
2024-03-02T01:39:55.272Z,7.00
2024-03-02T01:42:23.379Z,6.73
2024-03-02T01:44:54.033Z,6.88
2024-03-02T01:47:21.650Z,6.99
2024-03-02T01:49:49.211Z,7.15
2024-03-02T01:52:18.083Z,7.14
2024-03-02T01:54:45.704Z,7.13
2024-03-02T01:57:13.372Z,7.21
2024-03-02T01:59:40.941Z,7.23
2024-03-02T02:02:08.693Z,7.27
2024-03-02T02:04:36.256Z,7.29
2024-03-02T02:07:03.855Z,7.18
2024-03-02T02:09:32.812Z,7.19
2024-03-02T02:12:00.536Z,7.13
2024-03-02T02:14:28.413Z,6.91
2024-03-02T02:16:56.041Z,7.03
2024-03-02T02:19:24.130Z,6.84
2024-03-02T02:21:53.109Z,6.67
2024-03-02T02:24:20.852Z,6.66
2024-03-02T02:26:52.158Z,6.67
2024-03-02T02:29:19.931Z,6.81
2024-03-02T02:31:47.550Z,7.01
2024-03-02T02:34:16.236Z,7.01
2024-03-02T02:36:44.231Z,7.08
2024-03-02T02:39:14.410Z,6.91
2024-03-02T02:41:42.017Z,6.87
2024-03-02T02:44:13.895Z,7.00
2024-03-02T02:46:41.490Z,7.17
2024-03-02T02:49:09.135Z,6.73
2024-03-02T02:51:36.829Z,6.94
2024-03-02T02:54:04.572Z,7.15
2024-03-02T02:56:33.710Z,7.22
2024-03-02T02:59:01.292Z,7.13
2024-03-02T03:01:29.492Z,7.09
2024-03-02T03:03:57.292Z,7.10
2024-03-02T03:06:25.403Z,6.97
2024-03-02T03:08:53.044Z,6.97
2024-03-02T03:11:20.747Z,7.10
2024-03-02T03:13:49.653Z,7.22
2024-03-02T03:16:17.391Z,7.28
2024-03-02T03:18:45.024Z,7.32
2024-03-02T03:21:12.621Z,7.39
2024-03-02T03:23:40.326Z,7.37
2024-03-02T03:26:08.048Z,7.30
2024-03-02T03:28:35.647Z,7.03
2024-03-02T03:31:04.783Z,6.97
2024-03-02T03:33:32.409Z,7.12
2024-03-02T03:36:00.024Z,6.98
2024-03-02T03:38:27.758Z,7.12
2024-03-02T03:40:56.330Z,7.08
2024-03-02T03:43:23.979Z,7.25
2024-03-02T03:45:51.624Z,7.38
2024-03-02T03:48:20.909Z,7.41
2024-03-02T03:50:48.536Z,7.27
2024-03-02T03:53:17.122Z,7.00
2024-03-02T03:55:44.928Z,6.92
2024-03-02T03:58:12.562Z,6.88
2024-03-02T04:00:40.244Z,7.11
2024-03-02T04:03:07.931Z,7.13
2024-03-02T04:05:36.878Z,7.19
2024-03-02T04:08:04.578Z,7.23
2024-03-02T04:10:32.550Z,7.15
2024-03-02T04:13:00.256Z,7.15
2024-03-02T04:15:27.876Z,7.17
2024-03-02T04:17:56.405Z,7.00
2024-03-02T04:20:23.930Z,6.92
2024-03-02T04:22:52.895Z,6.95
2024-03-02T04:25:21.103Z,6.99
2024-03-02T04:27:48.759Z,6.73
2024-03-02T04:30:16.548Z,6.70
2024-03-02T04:32:47.402Z,7.08
2024-03-02T04:35:15.195Z,6.41
2024-03-02T04:37:42.759Z,6.53
2024-03-02T04:40:13.053Z,6.09
2024-03-02T04:42:40.632Z,6.08
2024-03-02T04:45:08.806Z,6.21
2024-03-02T04:47:36.359Z,6.14
2024-03-02T04:50:03.961Z,6.22
2024-03-02T04:52:31.927Z,6.39
2024-03-02T04:55:20.839Z,6.59
2024-03-02T04:57:52.487Z,6.52
2024-03-02T05:00:23.081Z,6.53
2024-03-02T05:02:50.694Z,6.30
2024-03-02T05:05:18.605Z,6.52
2024-03-02T05:07:46.569Z,6.54
2024-03-02T05:10:14.161Z,6.52
2024-03-02T05:12:58.588Z,6.62
2024-03-02T05:15:27.749Z,6.73
2024-03-02T05:17:55.542Z,6.91
2024-03-02T05:20:23.171Z,6.85
2024-03-02T05:22:50.877Z,6.85
2024-03-02T05:25:18.595Z,6.86
2024-03-02T05:27:46.295Z,6.88
2024-03-02T05:30:14.740Z,6.63
2024-03-02T05:32:43.771Z,6.58
2024-03-02T05:35:12.468Z,6.41
2024-03-02T05:37:40.293Z,6.58
2024-03-02T05:40:08.982Z,6.48
2024-03-02T05:42:36.787Z,6.53
2024-03-02T05:45:04.630Z,6.67
2024-03-02T05:47:32.275Z,6.39
2024-03-02T05:50:01.175Z,6.38
2024-03-02T05:52:29.003Z,6.27
2024-03-02T05:54:56.614Z,6.20
2024-03-02T05:57:46.527Z,6.35
2024-03-02T06:00:14.576Z,6.29
2024-03-02T06:02:42.610Z,6.39
2024-03-02T06:05:11.749Z,6.37
2024-03-02T06:07:39.393Z,6.44
2024-03-02T06:10:10.849Z,6.66
2024-03-02T06:12:40.183Z,6.38
2024-03-02T06:15:08.517Z,6.41
2024-03-02T06:17:37.043Z,6.59
2024-03-02T06:20:04.882Z,6.49
2024-03-02T06:22:33.845Z,6.46
2024-03-02T06:25:01.540Z,6.48
2024-03-02T06:27:28.221Z,6.37
2024-03-02T06:29:56.111Z,6.34
2024-03-02T06:32:24.248Z,6.38
2024-03-02T06:34:51.868Z,6.58
2024-03-02T06:37:19.488Z,6.63
2024-03-02T06:39:48.563Z,6.76
2024-03-02T06:42:16.182Z,6.67
2024-03-02T06:44:43.775Z,6.79
2024-03-02T06:47:18.906Z,6.90
2024-03-02T06:49:49.718Z,6.69
2024-03-02T06:52:19.753Z,6.69
2024-03-02T06:54:49.841Z,6.80
2024-03-02T06:57:18.404Z,7.04
2024-03-02T06:59:45.984Z,7.06
2024-03-02T07:02:13.683Z,7.11
2024-03-02T07:04:41.561Z,7.19
2024-03-02T07:07:09.262Z,7.28
2024-03-02T07:09:37.599Z,7.27
2024-03-02T07:12:06.905Z,7.12
2024-03-02T07:14:52.060Z,7.19
2024-03-02T07:17:19.808Z,7.19
2024-03-02T07:19:47.850Z,7.32
2024-03-02T07:22:15.518Z,7.43
2024-03-02T07:24:44.241Z,7.40
2024-03-02T07:27:13.283Z,7.52
2024-03-02T07:29:42.978Z,7.43
2024-03-02T07:32:10.660Z,7.45
2024-03-02T07:34:38.644Z,7.51
2024-03-02T07:37:06.198Z,7.60
2024-03-02T07:39:33.830Z,7.57
2024-03-02T07:42:01.549Z,7.45
2024-03-02T07:44:30.939Z,7.43
2024-03-02T07:46:58.604Z,7.49
2024-03-02T07:49:26.184Z,7.59
2024-03-02T07:51:53.777Z,7.66
2024-03-02T07:54:21.393Z,7.58
2024-03-02T07:56:48.969Z,7.57
2024-03-02T07:59:16.534Z,7.77
2024-03-02T08:01:45.956Z,7.84
2024-03-02T08:04:13.623Z,7.67
2024-03-02T08:06:41.212Z,7.54
2024-03-02T08:09:11.359Z,7.59
2024-03-02T08:11:39.848Z,7.62
2024-03-02T08:14:07.660Z,7.62
2024-03-02T08:16:35.455Z,7.75
2024-03-02T08:19:04.781Z,7.82
2024-03-02T08:21:33.388Z,7.96
2024-03-02T08:24:01.021Z,7.71
2024-03-02T08:26:30.334Z,7.73
2024-03-02T08:28:58.218Z,7.85
2024-03-02T08:31:27.467Z,7.91
2024-03-02T08:33:55.045Z,8.11
2024-03-02T08:36:24.197Z,8.08
2024-03-02T08:38:51.793Z,8.12
2024-03-02T08:41:19.841Z,8.14
2024-03-02T08:43:49.724Z,8.24
2024-03-02T08:46:17.336Z,8.19
2024-03-02T08:48:44.927Z,8.27
2024-03-02T08:51:12.777Z,8.35
2024-03-02T08:53:41.673Z,8.43
2024-03-02T08:56:11.866Z,8.32
2024-03-02T08:58:39.425Z,8.52
2024-03-02T09:01:08.472Z,8.58
2024-03-02T09:03:36.591Z,8.64
2024-03-02T09:06:04.266Z,8.46
2024-03-02T09:08:31.896Z,8.61
2024-03-02T09:11:01.370Z,8.52
2024-03-02T09:13:29.107Z,8.35
2024-03-02T09:15:56.729Z,8.46
2024-03-02T09:18:24.467Z,8.53
2024-03-02T09:20:52.095Z,8.47
2024-03-02T09:23:19.699Z,8.42
2024-03-02T09:25:48.103Z,8.57
2024-03-02T09:28:18.673Z,8.73
2024-03-02T09:30:46.307Z,8.75
2024-03-02T09:35:44.425Z,8.79
2024-03-02T09:38:12.427Z,8.73
2024-03-02T09:41:49.766Z,9.01
2024-03-02T09:44:17.988Z,9.07
2024-03-02T09:46:46.219Z,9.08
2024-03-02T09:49:13.792Z,8.95
2024-03-02T09:51:41.713Z,8.91
2024-03-02T09:54:17.890Z,9.08
2024-03-02T09:56:51.116Z,9.13
2024-03-02T09:59:20.435Z,9.16
2024-03-02T10:02:00.991Z,9.14
2024-03-02T10:04:28.869Z,9.48
2024-03-02T10:07:12.251Z,9.76
2024-03-02T10:09:39.816Z,9.96
2024-03-02T10:12:09.612Z,9.91
2024-03-02T10:14:37.222Z,9.93
2024-03-02T10:17:05.096Z,10.12
2024-03-02T10:19:34.219Z,10.10
2024-03-02T10:22:04.432Z,10.29
2024-03-02T10:24:36.946Z,10.23
2024-03-02T10:27:04.819Z,10.36
2024-03-02T10:29:34.106Z,10.58
2024-03-02T10:32:03.844Z,10.73
2024-03-02T10:34:31.678Z,11.00
2024-03-02T10:37:03.637Z,11.09
2024-03-02T10:39:33.646Z,10.97
2024-03-02T10:42:01.288Z,11.09
2024-03-02T10:44:28.872Z,10.70
2024-03-02T10:46:57.950Z,10.86
2024-03-02T10:49:26.444Z,10.75
2024-03-02T10:51:54.245Z,10.87
2024-03-02T10:54:27.494Z,10.98
2024-03-02T10:56:58.342Z,10.93
2024-03-02T10:59:26.606Z,10.87
2024-03-02T11:01:55.958Z,10.99
2024-03-02T11:04:25.559Z,11.41
2024-03-02T11:06:57.045Z,11.31
2024-03-02T11:09:24.778Z,11.19
2024-03-02T11:11:55.334Z,11.51
2024-03-02T11:17:45.576Z,11.32
2024-03-02T11:20:20.128Z,11.93
2024-03-02T11:22:47.741Z,11.91
2024-03-02T11:25:25.031Z,12.36
2024-03-02T11:28:05.278Z,13.61
2024-03-02T11:34:20.023Z,14.74
2024-03-02T11:36:49.200Z,14.23
2024-03-02T11:39:26.157Z,14.43
2024-03-02T11:41:55.123Z,12.78
2024-03-02T11:44:24.284Z,12.29
2024-03-02T11:47:30.856Z,12.05
2024-03-02T11:51:26.192Z,11.67
2024-03-02T11:53:20.962Z,11.68
2024-03-02T11:55:51.001Z,12.53
2024-03-02T11:58:22.234Z,13.37
2024-03-02T12:00:50.386Z,13.80
2024-03-02T12:03:19.180Z,14.02
2024-03-02T12:05:46.932Z,13.15
2024-03-02T12:08:14.711Z,13.97
2024-03-02T12:10:44.763Z,13.46
2024-03-02T12:13:15.701Z,12.82
2024-03-02T12:15:43.777Z,12.64
2024-03-02T12:18:11.726Z,13.06
2024-03-02T12:26:23.612Z,12.76
2024-03-02T12:28:55.092Z,13.13
2024-03-02T12:31:23.005Z,13.13
2024-03-02T12:33:53.937Z,13.40
2024-03-02T12:37:24.937Z,13.91
2024-03-02T12:39:54.927Z,13.52
2024-03-02T12:42:25.923Z,14.50
2024-03-02T12:44:55.238Z,14.64
2024-03-02T12:47:23.279Z,13.96
2024-03-02T12:49:59.763Z,13.98
2024-03-02T12:52:40.890Z,13.87
2024-03-02T12:57:20.212Z,13.82
2024-03-02T12:59:48.410Z,13.44
2024-03-02T13:02:19.170Z,12.88
2024-03-02T13:05:01.617Z,13.05
2024-03-02T13:07:29.200Z,13.06
2024-03-02T13:09:57.487Z,13.08
2024-03-02T13:12:31.885Z,13.40
2024-03-02T13:15:00.177Z,13.38
2024-03-02T13:17:34.685Z,13.40
2024-03-02T13:20:05.525Z,13.71
2024-03-02T13:22:33.075Z,13.52
2024-03-02T13:25:01.191Z,13.21
2024-03-02T13:27:30.243Z,13.39
2024-03-02T13:29:58.537Z,13.32
2024-03-02T13:32:29.741Z,13.16
2024-03-02T13:34:57.346Z,13.49
2024-03-02T13:37:25.160Z,13.25
2024-03-02T13:39:52.773Z,13.34
2024-03-02T13:42:21.128Z,13.52
2024-03-02T13:44:52.359Z,13.49
2024-03-02T13:47:20.351Z,13.03
2024-03-02T13:49:49.925Z,13.67
2024-03-02T13:52:18.231Z,13.98
2024-03-02T13:54:47.006Z,14.01
2024-03-02T13:57:15.064Z,13.80
2024-03-02T13:59:43.126Z,13.89
2024-03-02T14:02:12.205Z,13.78
2024-03-02T14:04:40.148Z,13.33
2024-03-02T14:07:09.549Z,13.64
2024-03-02T14:09:37.894Z,14.05
2024-03-02T14:12:06.713Z,13.62
2024-03-02T14:14:34.528Z,13.78
2024-03-02T14:17:05.708Z,14.20
2024-03-02T14:19:34.818Z,14.23
2024-03-02T14:22:04.768Z,13.83
2024-03-02T14:24:32.620Z,13.74
2024-03-02T14:27:06.735Z,14.10
2024-03-02T14:29:43.508Z,13.73
2024-03-02T14:32:11.482Z,13.62
2024-03-02T14:34:41.187Z,13.90
2024-03-02T14:37:09.210Z,14.09
2024-03-02T14:39:37.778Z,13.65
2024-03-02T14:42:05.840Z,13.80
2024-03-02T14:44:34.810Z,13.57
2024-03-02T14:47:03.658Z,13.50
2024-03-02T14:49:31.399Z,13.55
2024-03-02T14:52:00.508Z,13.44
2024-03-02T14:54:28.341Z,13.73
2024-03-02T14:56:56.953Z,13.45
2024-03-02T14:59:24.838Z,13.59
2024-03-02T15:01:52.524Z,13.38
2024-03-02T15:04:22.393Z,13.43
2024-03-02T15:06:50.368Z,13.39
2024-03-02T15:09:21.011Z,13.38
2024-03-02T15:11:48.713Z,13.38
2024-03-02T15:14:16.357Z,13.33
2024-03-02T15:16:44.111Z,13.36
2024-03-02T15:19:11.726Z,13.32
2024-03-02T15:21:38.751Z,13.17
2024-03-02T15:24:06.796Z,13.33
2024-03-02T15:26:36.248Z,13.40
2024-03-02T15:29:03.986Z,13.51
2024-03-02T15:31:31.792Z,13.12
2024-03-02T15:34:00.259Z,13.13
2024-03-02T15:36:30.561Z,12.96
2024-03-02T15:38:59.141Z,13.10
2024-03-02T15:41:26.954Z,13.18
2024-03-02T15:43:56.588Z,12.82
2024-03-02T15:46:24.245Z,12.79
2024-03-02T15:48:51.948Z,13.02
2024-03-02T15:51:22.074Z,12.99
2024-03-02T15:53:49.988Z,12.83
2024-03-02T15:56:17.534Z,12.52
2024-03-02T15:58:45.285Z,12.46
2024-03-02T16:01:14.494Z,12.49
2024-03-02T16:03:42.504Z,12.61
2024-03-02T16:06:10.267Z,12.28
2024-03-02T16:08:37.944Z,12.30
2024-03-02T16:11:05.843Z,12.01
2024-03-02T16:13:33.606Z,11.97
2024-03-02T16:16:01.200Z,11.70
2024-03-02T16:18:35.233Z,11.75
2024-03-02T16:21:05.104Z,11.58
2024-03-02T16:23:32.874Z,11.37
2024-03-02T16:26:00.417Z,11.36
2024-03-02T16:28:28.161Z,11.17
2024-03-02T16:30:56.725Z,11.17
2024-03-02T16:33:25.299Z,11.17
2024-03-02T16:35:54.434Z,11.12
2024-03-02T16:38:22.481Z,10.89
2024-03-02T16:40:50.250Z,10.80
2024-03-02T16:43:18.195Z,10.58
2024-03-02T16:45:46.548Z,10.61
2024-03-02T16:48:14.616Z,10.68
2024-03-02T16:50:42.197Z,10.53
2024-03-02T16:53:11.104Z,10.14
2024-03-02T16:55:38.763Z,10.03
2024-03-02T16:58:06.586Z,9.82
2024-03-02T17:00:34.311Z,9.58
2024-03-02T17:03:02.136Z,9.42
2024-03-02T17:05:30.314Z,9.40
2024-03-02T17:07:59.294Z,9.48
2024-03-02T17:10:28.392Z,9.33
2024-03-02T17:12:56.683Z,9.20
2024-03-02T17:15:24.729Z,9.12
2024-03-02T17:17:52.761Z,9.13
2024-03-02T17:20:23.096Z,9.37
2024-03-02T17:22:52.444Z,9.12
2024-03-02T17:25:20.342Z,8.88
2024-03-02T17:27:51.232Z,8.93
2024-03-02T17:30:21.406Z,9.02
2024-03-02T17:32:49.507Z,9.22
2024-03-02T17:35:17.343Z,9.12
2024-03-02T17:37:47.602Z,9.05
2024-03-02T17:40:15.384Z,9.10
2024-03-02T17:42:43.223Z,8.97
2024-03-02T17:45:12.818Z,8.92
2024-03-02T17:47:40.495Z,8.84
2024-03-02T17:50:21.714Z,8.98
2024-03-02T17:52:50.030Z,8.95
2024-03-02T17:55:20.346Z,8.84
2024-03-02T17:57:50.208Z,8.62
2024-03-02T18:00:22.294Z,8.76
2024-03-02T18:02:50.437Z,8.72
2024-03-02T18:05:18.108Z,8.67
2024-03-02T18:07:46.010Z,8.65
2024-03-02T18:10:13.660Z,8.48
2024-03-02T18:12:41.360Z,8.69
2024-03-02T18:15:09.885Z,8.61
2024-03-02T18:17:40.880Z,8.59
2024-03-02T18:20:09.310Z,8.78
2024-03-02T18:22:37.137Z,8.41
2024-03-02T18:25:05.345Z,8.51
2024-03-02T18:27:35.090Z,8.51
2024-03-02T18:30:11.182Z,8.61
2024-03-02T18:32:40.804Z,8.55
2024-03-02T18:35:09.736Z,8.43
2024-03-02T18:37:37.655Z,8.31
2024-03-02T18:40:06.323Z,8.28
2024-03-02T18:42:34.418Z,8.29
2024-03-02T18:45:04.920Z,8.31
2024-03-02T18:47:32.935Z,8.12
2024-03-02T18:50:04.023Z,8.25
2024-03-02T18:52:34.978Z,8.22
2024-03-02T18:55:04.186Z,8.42
2024-03-02T18:57:32.038Z,8.41
2024-03-02T18:59:59.676Z,8.02
2024-03-02T19:02:27.362Z,7.82
2024-03-02T19:04:55.308Z,7.67
2024-03-02T19:07:25.041Z,7.71
2024-03-02T19:09:52.818Z,7.53
2024-03-02T19:12:20.436Z,7.59
2024-03-02T19:14:47.989Z,7.39
2024-03-02T19:17:15.797Z,7.32
2024-03-02T19:19:43.570Z,7.04
2024-03-02T19:22:12.252Z,7.14
2024-03-02T19:24:41.857Z,6.97
2024-03-02T19:27:09.574Z,6.85
2024-03-02T19:29:37.161Z,6.96
2024-03-02T19:32:08.572Z,6.89
2024-03-02T19:34:40.319Z,6.97
2024-03-02T19:37:08.632Z,7.22
2024-03-02T19:39:40.124Z,7.30
2024-03-02T19:42:10.247Z,7.33
2024-03-02T19:44:38.120Z,7.41
2024-03-02T19:47:05.698Z,7.32
2024-03-02T19:49:33.418Z,6.72
2024-03-02T19:52:01.608Z,7.07
2024-03-02T19:54:29.285Z,6.98
2024-03-02T19:56:56.987Z,6.72
2024-03-02T19:59:25.954Z,7.05
2024-03-02T20:01:53.885Z,6.58
2024-03-02T20:04:25.807Z,6.69
2024-03-02T20:06:53.584Z,6.73
2024-03-02T20:09:23.657Z,6.92
2024-03-02T20:11:52.189Z,7.26
2024-03-02T20:14:20.125Z,7.45
2024-03-02T20:16:49.157Z,7.51
2024-03-02T20:19:19.236Z,7.41
2024-03-02T20:21:47.085Z,7.40
2024-03-02T20:24:15.680Z,7.47
2024-03-02T20:26:43.251Z,7.46
2024-03-02T20:29:10.996Z,7.34
2024-03-02T20:31:39.196Z,7.23
2024-03-02T20:34:08.425Z,7.37
2024-03-02T20:36:36.572Z,7.42
2024-03-02T20:39:06.353Z,7.32
2024-03-02T20:41:34.469Z,7.29
2024-03-02T20:44:02.239Z,7.41
2024-03-02T20:46:30.066Z,7.36
2024-03-02T20:49:00.683Z,7.33
2024-03-02T20:51:30.946Z,7.31
2024-03-02T20:54:00.105Z,7.58
2024-03-02T20:56:28.249Z,7.51
2024-03-02T20:58:57.115Z,7.52
2024-03-02T21:01:25.177Z,7.57
2024-03-02T21:03:52.747Z,7.46
2024-03-02T21:06:20.894Z,7.59
2024-03-02T21:08:50.149Z,7.72
2024-03-02T21:11:19.571Z,7.69
2024-03-02T21:13:48.946Z,7.52
2024-03-02T21:16:17.431Z,7.46
2024-03-02T21:18:45.301Z,7.51
2024-03-02T21:21:13.243Z,7.41
2024-03-02T21:23:40.913Z,7.09
2024-03-02T21:26:10.255Z,6.87
2024-03-02T21:28:38.212Z,7.04
2024-03-02T21:31:05.997Z,6.93
2024-03-02T21:33:33.689Z,7.04
2024-03-02T21:36:01.335Z,6.61
2024-03-02T21:38:29.041Z,6.62
2024-03-02T21:40:56.778Z,6.50
2024-03-02T21:43:29.292Z,6.63
2024-03-02T21:45:57.012Z,6.62
2024-03-02T21:48:24.644Z,6.69
2024-03-02T21:50:52.212Z,6.93
2024-03-02T21:53:19.810Z,6.83
2024-03-02T21:55:47.343Z,6.92
2024-03-02T21:58:15.499Z,7.15
2024-03-02T22:00:44.579Z,7.31
2024-03-02T22:03:12.233Z,7.20
2024-03-02T22:05:42.134Z,7.28
2024-03-02T22:08:09.758Z,7.44
2024-03-02T22:10:37.325Z,7.46
2024-03-02T22:13:05.005Z,7.45
2024-03-02T22:15:32.682Z,7.61
2024-03-02T22:18:04.363Z,7.70
2024-03-02T22:20:32.178Z,7.62
2024-03-02T22:22:59.730Z,7.60
2024-03-02T22:25:27.329Z,7.37
2024-03-02T22:27:56.959Z,7.47
2024-03-02T22:30:24.666Z,7.47
2024-03-02T22:32:52.936Z,7.34
2024-03-02T22:35:23.970Z,7.30
2024-03-02T22:37:51.740Z,6.74
2024-03-02T22:40:19.402Z,6.88
2024-03-02T22:42:47.073Z,6.40
2024-03-02T22:45:14.778Z,6.31
2024-03-02T22:47:42.341Z,5.86
2024-03-02T22:50:10.080Z,6.18
2024-03-02T22:52:38.970Z,5.74
2024-03-02T22:55:07.052Z,5.80
2024-03-02T22:57:34.770Z,5.84
2024-03-02T23:00:02.379Z,5.65
2024-03-02T23:02:30.081Z,5.79
2024-03-02T23:04:57.816Z,5.64
2024-03-02T23:07:25.450Z,5.63
2024-03-02T23:09:54.924Z,5.47
2024-03-02T23:12:22.645Z,5.43
2024-03-02T23:14:50.219Z,5.03
2024-03-02T23:17:17.797Z,5.29
2024-03-02T23:19:45.431Z,5.41
2024-03-02T23:22:14.274Z,5.16
2024-03-02T23:24:42.719Z,5.14
2024-03-02T23:27:11.698Z,5.15
2024-03-02T23:29:41.191Z,4.93
2024-03-02T23:32:08.871Z,5.14
2024-03-02T23:34:36.497Z,5.44
2024-03-02T23:37:04.132Z,5.32
2024-03-02T23:39:49.301Z,5.07
2024-03-02T23:42:18.243Z,5.10
2024-03-02T23:44:45.803Z,5.02
2024-03-02T23:47:13.372Z,4.81
2024-03-02T23:49:40.946Z,5.17
2024-03-02T23:52:08.567Z,5.15
2024-03-02T23:54:36.198Z,5.25
2024-03-02T23:57:04.208Z,5.61
2024-03-02T23:59:33.544Z,5.52
